Azle, Texas
Current Conditions -  °F | °C
As of 1:20 AM on Monday 22 Dec 2014 (Local Time) from KNFW Reporting Station
Scattered Clouds Scattered Clouds  
Wind Chill: 54°   Ceiling: Unl
Heat Index: 54°   Visibility: 10mi
Dew Point: 46°   Wind: 14mph
Humidity: 75%   Direction: 190°S
Pressure: 29.72"   Gusts: 23mph
Location:  32.88°N, 97.54°W
Report Text: KNFW 220720Z AUTO 19012G20KT 10SM SCT014 12/08 A2972 RMK AO2 T01220078
Loading
Personal Weather Stations






























Interactive Weather Map New forecast layout! Learn more

10-Day Weather Forecast

Advertisements
Track Severe Weather on mobile